Time;durP1;ratioP1;P1;durP2;ratioP2;P2;SDS_P1;SDS_P2;PMS_P1;PMS_P2;Temp;Humidity;BMP_temperature;BMP_pressure;BME280_temperature;BME280_humidity;BME280_pressure;Samples;Min_cycle;Max_cycle;Signal;HPM_P1;HPM_P2
2023/09/30 00:02:20;;;;;;;31.73;10.30;;;;;;;;;;5002748;28;20421;-81
2023/09/30 00:04:45;;;;;;;29.77;11.00;;;;;;;;;;5021105;28;20041;-80
2023/09/30 00:07:10;;;;;;;40.75;11.25;;;;;;;;;;5002947;28;20030;-80
2023/09/30 00:09:36;;;;;;;33.22;11.13;;;;;;;;;;5002962;28;20046;-77
2023/09/30 00:12:01;;;;;;;36.50;10.73;;;;;;;;;;5002774;28;20071;-79
2023/09/30 00:14:27;;;;;;;30.02;10.13;;;;;;;;;;5002651;28;20252;-80
2023/09/30 00:16:52;;;;;;;34.15;11.00;;;;;;;;;;5020161;28;20068;-79
2023/09/30 00:19:17;;;;;;;30.50;9.57;;;;;;;;;;5020299;28;20052;-79
2023/09/30 00:21:42;;;;;;;26.92;10.38;;;;;;;;;;5002369;28;20490;-80
2023/09/30 00:24:09;;;;;;;29.05;10.85;;;;;;;;;;5019886;28;20025;-79
2023/09/30 00:26:34;;;;;;;29.58;11.27;;;;;;;;;;5020421;28;20089;-78
2023/09/30 00:28:59;;;;;;;31.85;11.40;;;;;;;;;;5002892;28;20057;-80
2023/09/30 00:31:25;;;;;;;26.17;10.10;;;;;;;;;;5002098;28;20036;-80
2023/09/30 00:33:50;;;;;;;34.45;11.30;;;;;;;;;;5002726;28;20030;-80
2023/09/30 00:36:16;;;;;;;33.60;11.07;;;;;;;;;;5002380;28;20037;-79
2023/09/30 00:38:41;;;;;;;27.20;10.23;;;;;;;;;;5002878;28;20475;-79
2023/09/30 00:41:07;;;;;;;30.67;10.75;;;;;;;;;;5003276;28;20081;-80
2023/09/30 00:43:33;;;;;;;28.48;10.60;;;;;;;;;;5002784;28;20068;-80
2023/09/30 00:46:10;;;;;;;30.23;10.23;;;;;;;;;;5019679;28;20057;-79
2023/09/30 00:48:37;;;;;;;33.20;10.38;;;;;;;;;;5019837;28;20116;-80
2023/09/30 00:51:03;;;;;;;32.47;10.85;;;;;;;;;;5003447;28;20092;-80
2023/09/30 00:53:29;;;;;;;27.10;10.05;;;;;;;;;;5020344;28;20049;-80
2023/09/30 00:55:56;;;;;;;35.53;11.52;;;;;;;;;;5002576;28;20041;-80
2023/09/30 00:58:23;;;;;;;33.45;10.73;;;;;;;;;;5019869;28;20092;-80
2023/09/30 01:00:49;;;;;;;33.78;10.38;;;;;;;;;;5001806;28;20029;-80
2023/09/30 01:03:14;;;;;;;35.10;9.85;;;;;;;;;;5020565;28;20367;-79
2023/09/30 01:05:39;;;;;;;29.70;10.00;;;;;;;;;;5004006;28;20029;-79
2023/09/30 01:08:05;;;;;;;28.90;10.75;;;;;;;;;;5020159;28;20034;-80
2023/09/30 01:10:30;;;;;;;30.75;10.35;;;;;;;;;;5019952;28;20172;-80
2023/09/30 01:12:56;;;;;;;30.23;10.35;;;;;;;;;;5002134;28;20045;-81
2023/09/30 01:15:21;;;;;;;23.95;9.85;;;;;;;;;;5001862;28;20029;-80
2023/09/30 01:17:46;;;;;;;26.17;9.57;;;;;;;;;;5019809;28;20052;-80
2023/09/30 01:20:16;;;;;;;34.53;10.50;;;;;;;;;;5019230;28;20030;-80
2023/09/30 01:22:42;;;;;;;24.73;9.73;;;;;;;;;;5018996;28;20409;-79
2023/09/30 01:25:09;;;;;;;31.25;10.05;;;;;;;;;;5001618;28;20061;-80
2023/09/30 01:27:35;;;;;;;24.38;9.70;;;;;;;;;;5019503;28;20495;-80
2023/09/30 01:30:00;;;;;;;28.77;10.85;;;;;;;;;;5020017;28;20022;-80
2023/09/30 01:32:26;;;;;;;26.75;9.55;;;;;;;;;;5019035;28;20034;-80
2023/09/30 01:34:52;;;;;;;34.42;11.13;;;;;;;;;;5019487;28;20041;-81
2023/09/30 01:37:17;;;;;;;27.83;10.15;;;;;;;;;;5018859;28;20152;-80
2023/09/30 01:39:44;;;;;;;23.45;9.10;;;;;;;;;;5001553;28;20317;-80
2023/09/30 01:42:10;;;;;;;32.00;10.38;;;;;;;;;;5001179;28;20029;-81
2023/09/30 01:44:35;;;;;;;27.73;10.27;;;;;;;;;;5001940;28;20113;-79
2023/09/30 01:47:00;;;;;;;32.53;9.85;;;;;;;;;;5018190;28;20058;-80
2023/09/30 01:49:26;;;;;;;28.65;10.18;;;;;;;;;;5001182;28;20041;-78
2023/09/30 01:51:51;;;;;;;33.90;9.77;;;;;;;;;;5018699;28;20094;-81
2023/09/30 01:54:17;;;;;;;27.10;9.77;;;;;;;;;;5018322;28;20056;-78
2023/09/30 01:56:42;;;;;;;23.85;9.32;;;;;;;;;;5019651;28;20034;-80
2023/09/30 01:59:07;;;;;;;26.77;9.25;;;;;;;;;;5017778;28;20422;-80
2023/09/30 02:01:33;;;;;;;25.52;9.18;;;;;;;;;;5001110;28;20121;-80
2023/09/30 02:03:58;;;;;;;29.33;10.43;;;;;;;;;;5018580;28;20034;-80
2023/09/30 02:06:23;;;;;;;25.85;10.07;;;;;;;;;;5001143;28;20037;-79
2023/09/30 02:08:48;;;;;;;24.65;9.82;;;;;;;;;;5019888;28;20489;-80
2023/09/30 02:11:14;;;;;;;27.50;9.70;;;;;;;;;;5001128;28;20058;-80
2023/09/30 02:13:41;;;;;;;26.10;9.48;;;;;;;;;;5018913;28;20030;-79
2023/09/30 02:16:11;;;;;;;22.00;9.50;;;;;;;;;;5001138;28;20042;-80
2023/09/30 02:18:36;;;;;;;26.33;10.32;;;;;;;;;;5001104;28;20045;-80
2023/09/30 02:21:04;;;;;;;34.38;9.50;;;;;;;;;;5019087;28;20018;-79
2023/09/30 02:23:29;;;;;;;25.83;10.10;;;;;;;;;;5000860;28;20042;-80
2023/09/30 02:25:54;;;;;;;31.48;9.23;;;;;;;;;;5018507;28;20033;-80
2023/09/30 02:28:20;;;;;;;28.67;9.80;;;;;;;;;;5001516;28;20038;-78
2023/09/30 02:30:45;;;;;;;25.58;9.05;;;;;;;;;;5000659;28;20032;-81
2023/09/30 02:33:10;;;;;;;26.20;9.90;;;;;;;;;;5018368;28;20060;-80
2023/09/30 02:35:38;;;;;;;27.27;8.35;;;;;;;;;;5001413;28;20060;-81
2023/09/30 02:38:04;;;;;;;27.33;10.20;;;;;;;;;;5018349;28;20034;-80
2023/09/30 02:40:29;;;;;;;26.17;8.45;;;;;;;;;;5018183;28;20038;-80
2023/09/30 02:42:54;;;;;;;24.20;8.68;;;;;;;;;;5018966;28;20038;-80
2023/09/30 02:45:20;;;;;;;25.35;9.15;;;;;;;;;;5000231;28;20025;-80
2023/09/30 02:47:46;;;;;;;23.98;8.48;;;;;;;;;;5001613;28;20057;-79
2023/09/30 02:50:12;;;;;;;23.75;8.90;;;;;;;;;;5018691;28;20030;-79
2023/09/30 02:52:40;;;;;;;25.98;8.82;;;;;;;;;;5000811;28;20104;-79
2023/09/30 02:55:09;;;;;;;21.83;8.88;;;;;;;;;;5001015;28;20099;-79
2023/09/30 02:57:35;;;;;;;18.20;7.70;;;;;;;;;;5000123;28;20060;-80
2023/09/30 03:00:23;;;;;;;21.73;9.38;;;;;;;;;;5001025;28;20029;-80
2023/09/30 03:02:50;;;;;;;21.52;8.23;;;;;;;;;;4982147;28;20038;-80
2023/09/30 03:05:15;;;;;;;25.10;9.18;;;;;;;;;;4999709;28;20030;-80
2023/09/30 03:07:41;;;;;;;22.55;8.77;;;;;;;;;;4987784;28;20034;-80
2023/09/30 03:10:08;;;;;;;28.08;9.18;;;;;;;;;;4999062;28;20041;-79
2023/09/30 03:12:34;;;;;;;24.73;8.68;;;;;;;;;;4985607;28;20038;-80
2023/09/30 03:15:04;;;;;;;20.88;8.30;;;;;;;;;;4985889;28;20569;-79
2023/09/30 03:17:29;;;;;;;27.77;8.68;;;;;;;;;;5003119;28;20066;-80
2023/09/30 03:19:57;;;;;;;22.08;8.05;;;;;;;;;;5003055;28;20061;-80
2023/09/30 03:22:22;;;;;;;24.23;9.27;;;;;;;;;;4996191;28;20501;-78
2023/09/30 03:24:47;;;;;;;24.55;8.57;;;;;;;;;;4999610;28;20041;-81
2023/09/30 03:27:14;;;;;;;20.83;7.75;;;;;;;;;;4986122;28;20003;-80
2023/09/30 03:29:40;;;;;;;27.58;9.35;;;;;;;;;;5004154;28;20032;-81
2023/09/30 03:32:06;;;;;;;24.13;7.43;;;;;;;;;;5001680;28;20096;-79
2023/09/30 03:34:31;;;;;;;22.70;8.68;;;;;;;;;;5004263;28;20430;-80
2023/09/30 03:36:58;;;;;;;19.85;7.60;;;;;;;;;;5022672;28;20048;-80
2023/09/30 03:39:27;;;;;;;18.27;7.97;;;;;;;;;;5004668;28;20138;-80
2023/09/30 03:41:56;;;;;;;21.98;8.18;;;;;;;;;;5023364;28;20482;-81
2023/09/30 03:44:22;;;;;;;23.42;8.40;;;;;;;;;;5005157;28;20038;-81
2023/09/30 03:46:48;;;;;;;19.95;7.80;;;;;;;;;;5003930;28;20528;-81
2023/09/30 03:49:13;;;;;;;21.63;7.57;;;;;;;;;;5022350;28;20089;-81
2023/09/30 03:51:39;;;;;;;24.58;7.97;;;;;;;;;;5004503;28;20101;-80
2023/09/30 03:54:05;;;;;;;21.85;8.02;;;;;;;;;;5004742;28;20124;-81
2023/09/30 03:56:31;;;;;;;21.70;7.63;;;;;;;;;;5004666;28;20037;-81
2023/09/30 03:58:56;;;;;;;20.85;8.15;;;;;;;;;;5004516;28;20030;-81
2023/09/30 04:01:23;;;;;;;25.92;8.85;;;;;;;;;;5005020;28;20101;-79
2023/09/30 04:03:48;;;;;;;20.00;8.27;;;;;;;;;;5021925;28;20506;-81
2023/09/30 04:06:14;;;;;;;22.20;7.50;;;;;;;;;;5004085;28;20042;-80
2023/09/30 04:08:40;;;;;;;18.25;6.82;;;;;;;;;;5021476;28;20500;-80
2023/09/30 04:11:06;;;;;;;23.35;7.55;;;;;;;;;;5002479;28;20065;-80
2023/09/30 04:13:31;;;;;;;17.50;6.75;;;;;;;;;;5022091;28;20034;-81
2023/09/30 04:15:59;;;;;;;24.98;7.97;;;;;;;;;;5021532;28;20502;-81
2023/09/30 04:18:26;;;;;;;18.45;8.15;;;;;;;;;;5003237;28;20038;-81
2023/09/30 04:20:54;;;;;;;21.55;7.88;;;;;;;;;;5004870;28;20018;-83
2023/09/30 04:23:22;;;;;;;24.13;7.80;;;;;;;;;;4984660;28;20406;-81
2023/09/30 04:25:48;;;;;;;18.85;6.85;;;;;;;;;;4984273;28;20049;-81
2023/09/30 04:28:13;;;;;;;16.60;6.57;;;;;;;;;;4984570;28;20038;-81
2023/09/30 04:30:39;;;;;;;15.60;6.70;;;;;;;;;;4984312;28;20034;-81
2023/09/30 04:33:05;;;;;;;18.80;6.45;;;;;;;;;;4984495;28;20026;-78
2023/09/30 04:35:30;;;;;;;18.08;6.63;;;;;;;;;;4984357;28;20019;-81
2023/09/30 04:37:57;;;;;;;15.13;5.95;;;;;;;;;;5002075;28;20038;-80
2023/09/30 04:40:23;;;;;;;18.77;6.57;;;;;;;;;;5001771;28;20040;-81
2023/09/30 04:42:48;;;;;;;17.75;6.75;;;;;;;;;;4983883;28;20113;-81
2023/09/30 04:45:19;;;;;;;17.33;6.53;;;;;;;;;;4984094;28;20022;-80
2023/09/30 04:47:45;;;;;;;18.08;6.20;;;;;;;;;;5005932;28;20053;-81
2023/09/30 04:50:11;;;;;;;19.17;6.63;;;;;;;;;;5001399;28;20110;-80
2023/09/30 04:52:38;;;;;;;17.45;6.63;;;;;;;;;;4983177;28;20063;-79
2023/09/30 04:55:04;;;;;;;19.52;6.18;;;;;;;;;;5000478;28;20042;-79
2023/09/30 04:57:30;;;;;;;16.77;6.75;;;;;;;;;;4982206;28;20043;-78
2023/09/30 04:59:55;;;;;;;21.88;6.30;;;;;;;;;;4984152;28;20029;-79
2023/09/30 05:02:21;;;;;;;18.15;5.68;;;;;;;;;;4982584;28;20133;-79
2023/09/30 05:04:47;;;;;;;18.25;6.93;;;;;;;;;;4999763;28;20026;-80
2023/09/30 05:07:13;;;;;;;18.20;6.57;;;;;;;;;;4999793;28;20132;-78
2023/09/30 05:09:38;;;;;;;19.15;6.80;;;;;;;;;;5018010;28;20030;-78
2023/09/30 05:12:04;;;;;;;13.73;5.40;;;;;;;;;;5001823;28;20093;-81
2023/09/30 05:14:29;;;;;;;14.77;6.35;;;;;;;;;;5003176;28;20018;-81
2023/09/30 05:16:56;;;;;;;15.88;6.35;;;;;;;;;;5020072;28;20117;-80
2023/09/30 05:19:21;;;;;;;15.55;6.32;;;;;;;;;;5020314;28;20498;-80
2023/09/30 05:21:47;;;;;;;14.55;6.22;;;;;;;;;;5019401;28;20045;-79
2023/09/30 05:24:12;;;;;;;19.10;6.93;;;;;;;;;;5019743;28;20474;-79
2023/09/30 05:26:38;;;;;;;15.43;6.00;;;;;;;;;;5020289;28;20378;-80
2023/09/30 05:29:03;;;;;;;20.17;6.25;;;;;;;;;;5019417;28;20046;-80
2023/09/30 05:31:29;;;;;;;19.88;7.10;;;;;;;;;;5019595;28;20034;-80
2023/09/30 05:33:55;;;;;;;20.00;5.93;;;;;;;;;;5000504;28;20502;-79
2023/09/30 05:36:20;;;;;;;17.27;6.65;;;;;;;;;;5001877;28;20482;-81
2023/09/30 05:38:47;;;;;;;17.00;6.07;;;;;;;;;;5020689;28;20104;-80
2023/09/30 05:41:14;;;;;;;14.88;6.28;;;;;;;;;;5001455;28;20417;-80
2023/09/30 05:43:39;;;;;;;20.95;7.13;;;;;;;;;;5002138;28;20029;-80
2023/09/30 05:46:06;;;;;;;14.77;5.93;;;;;;;;;;5000824;28;20208;-80
2023/09/30 05:48:31;;;;;;;18.30;6.60;;;;;;;;;;5018415;28;20046;-79
2023/09/30 05:50:57;;;;;;;16.63;6.47;;;;;;;;;;5017515;28;20552;-79
2023/09/30 05:53:22;;;;;;;24.90;6.68;;;;;;;;;;5000460;28;20037;-78
2023/09/30 05:55:48;;;;;;;20.55;6.57;;;;;;;;;;5017518;28;20033;-79
2023/09/30 05:58:16;;;;;;;16.30;6.03;;;;;;;;;;5017539;28;20494;-79
2023/09/30 06:00:42;;;;;;;15.93;5.93;;;;;;;;;;5017884;28;20030;-79
2023/09/30 06:03:08;;;;;;;17.90;6.60;;;;;;;;;;5016480;28;20401;-79
2023/09/30 06:05:34;;;;;;;14.73;5.95;;;;;;;;;;4999367;28;20022;-77
2023/09/30 06:08:04;;;;;;;17.17;6.47;;;;;;;;;;4996995;28;20379;-78
2023/09/30 06:10:29;;;;;;;19.90;6.35;;;;;;;;;;4997139;28;20096;-79
2023/09/30 06:12:56;;;;;;;13.30;5.85;;;;;;;;;;4997595;28;20046;-78
2023/09/30 06:15:25;;;;;;;15.95;5.85;;;;;;;;;;4996971;28;20022;-79
2023/09/30 06:17:51;;;;;;;26.13;6.38;;;;;;;;;;4997603;28;20636;-80
2023/09/30 06:20:17;;;;;;;16.40;6.00;;;;;;;;;;4996915;28;20034;-80
2023/09/30 06:22:49;;;;;;;18.13;6.15;;;;;;;;;;4996937;28;20177;-80
2023/09/30 06:25:16;;;;;;;18.83;6.63;;;;;;;;;;5014944;28;20041;-79
2023/09/30 06:27:45;;;;;;;16.02;6.05;;;;;;;;;;4997236;28;20088;-79
2023/09/30 06:30:13;;;;;;;16.60;5.90;;;;;;;;;;4997670;28;20348;-80
2023/09/30 06:32:39;;;;;;;15.40;5.78;;;;;;;;;;4998120;28;20026;-79
2023/09/30 06:35:06;;;;;;;18.23;6.03;;;;;;;;;;5014183;28;20080;-80
2023/09/30 06:37:32;;;;;;;15.65;6.10;;;;;;;;;;5013609;28;20151;-79
2023/09/30 06:39:57;;;;;;;16.35;7.07;;;;;;;;;;4996522;28;20053;-79
2023/09/30 06:42:24;;;;;;;19.30;5.90;;;;;;;;;;5013880;28;20370;-79
2023/09/30 06:44:49;;;;;;;17.50;6.18;;;;;;;;;;5014668;28;20053;-80
2023/09/30 06:47:14;;;;;;;17.90;6.65;;;;;;;;;;5018273;28;20409;-80
2023/09/30 06:49:40;;;;;;;19.15;6.32;;;;;;;;;;5018487;28;20042;-79
2023/09/30 06:52:05;;;;;;;22.17;6.53;;;;;;;;;;5018180;28;20588;-80
2023/09/30 06:54:31;;;;;;;18.25;6.15;;;;;;;;;;5000345;28;20030;-80
2023/09/30 06:56:56;;;;;;;15.15;6.00;;;;;;;;;;5018306;28;20100;-80
2023/09/30 06:59:22;;;;;;;20.40;6.28;;;;;;;;;;5000737;28;20038;-77
2023/09/30 07:01:47;;;;;;;15.23;5.45;;;;;;;;;;5017639;28;20041;-80
2023/09/30 07:04:12;;;;;;;15.63;5.45;;;;;;;;;;5000725;28;20049;-80
2023/09/30 07:06:38;;;;;;;15.70;5.70;;;;;;;;;;5017638;28;20042;-80
2023/09/30 07:09:04;;;;;;;12.48;5.47;;;;;;;;;;5000321;28;20363;-80
2023/09/30 07:11:32;;;;;;;19.38;5.55;;;;;;;;;;5018707;28;20025;-81
2023/09/30 07:13:58;;;;;;;17.67;5.70;;;;;;;;;;5000464;28;20053;-79
2023/09/30 07:16:24;;;;;;;15.05;5.35;;;;;;;;;;5018156;28;20049;-80
2023/09/30 07:18:50;;;;;;;14.13;5.90;;;;;;;;;;5017818;28;20401;-79
2023/09/30 07:21:16;;;;;;;12.20;5.53;;;;;;;;;;4999390;28;20022;-80
2023/09/30 07:23:41;;;;;;;14.27;5.93;;;;;;;;;;5018797;28;20049;-80
2023/09/30 07:26:06;;;;;;;14.82;5.75;;;;;;;;;;5017719;28;20044;-80
2023/09/30 07:28:33;;;;;;;16.38;5.38;;;;;;;;;;4999779;28;20038;-80
2023/09/30 07:30:58;;;;;;;12.88;5.38;;;;;;;;;;4999202;28;20192;-81
2023/09/30 07:33:24;;;;;;;17.35;6.07;;;;;;;;;;5018377;28;20472;-79
2023/09/30 07:35:49;;;;;;;15.65;6.30;;;;;;;;;;5018778;28;20058;-78
2023/09/30 07:38:15;;;;;;;20.75;7.57;;;;;;;;;;5000001;28;20282;-80
2023/09/30 07:40:40;;;;;;;22.42;7.80;;;;;;;;;;5017588;28;20038;-79
2023/09/30 07:43:05;;;;;;;22.73;7.28;;;;;;;;;;5000330;28;20037;-78
2023/09/30 07:45:31;;;;;;;21.67;8.05;;;;;;;;;;5000243;28;20045;-79
2023/09/30 07:47:58;;;;;;;24.50;8.13;;;;;;;;;;5000538;28;20025;-80
2023/09/30 07:50:23;;;;;;;26.30;9.02;;;;;;;;;;5000004;28;20061;-80
2023/09/30 07:52:49;;;;;;;28.90;9.60;;;;;;;;;;5017085;28;20474;-80
2023/09/30 07:55:14;;;;;;;25.42;8.55;;;;;;;;;;5000012;28;20034;-78
2023/09/30 07:57:41;;;;;;;23.73;8.40;;;;;;;;;;5015779;28;20053;-80
2023/09/30 08:00:09;;;;;;;23.35;8.90;;;;;;;;;;5016681;28;20450;-78
2023/09/30 08:02:34;;;;;;;22.13;7.38;;;;;;;;;;4999365;28;20022;-81
2023/09/30 08:05:00;;;;;;;20.58;7.55;;;;;;;;;;4999790;28;20092;-81
2023/09/30 08:07:26;;;;;;;21.85;7.70;;;;;;;;;;5016576;28;20041;-80
2023/09/30 08:09:51;;;;;;;21.73;7.50;;;;;;;;;;4999425;28;20034;-78
2023/09/30 08:12:17;;;;;;;18.40;7.38;;;;;;;;;;4998891;28;20048;-80
2023/09/30 08:14:44;;;;;;;22.55;8.15;;;;;;;;;;4999869;28;20025;-81
2023/09/30 08:17:10;;;;;;;22.38;7.82;;;;;;;;;;4999694;28;20522;-80
2023/09/30 08:19:36;;;;;;;17.55;7.32;;;;;;;;;;5017648;28;20100;-79
2023/09/30 08:22:01;;;;;;;27.08;8.32;;;;;;;;;;4999996;28;20041;-80
2023/09/30 08:24:29;;;;;;;20.50;7.30;;;;;;;;;;4999195;28;20030;-80
2023/09/30 08:26:56;;;;;;;15.60;6.10;;;;;;;;;;5016551;28;20022;-79
2023/09/30 08:29:21;;;;;;;14.70;6.47;;;;;;;;;;4999279;28;20038;-79
2023/09/30 08:31:47;;;;;;;16.85;6.80;;;;;;;;;;4999474;28;20040;-80
2023/09/30 08:34:14;;;;;;;19.27;6.70;;;;;;;;;;4999253;28;20030;-80
2023/09/30 08:36:40;;;;;;;24.90;7.93;;;;;;;;;;5017112;28;20503;-79
2023/09/30 08:39:06;;;;;;;16.92;6.15;;;;;;;;;;5017668;28;20116;-79
2023/09/30 08:41:32;;;;;;;17.92;7.85;;;;;;;;;;5016913;28;20076;-79
2023/09/30 08:44:02;;;;;;;19.35;7.20;;;;;;;;;;5016530;28;20580;-78
2023/09/30 08:46:34;;;;;;;19.05;7.15;;;;;;;;;;4997910;28;20073;-78
2023/09/30 08:49:03;;;;;;;22.55;8.13;;;;;;;;;;4999467;28;20046;-78
2023/09/30 08:51:29;;;;;;;21.75;7.65;;;;;;;;;;5016550;28;20053;-78
2023/09/30 08:53:56;;;;;;;18.48;6.95;;;;;;;;;;5012276;28;20029;-78
2023/09/30 08:56:26;;;;;;;23.33;8.05;;;;;;;;;;4998601;28;20040;-78
2023/09/30 08:58:53;;;;;;;22.83;7.93;;;;;;;;;;5016215;28;20037;-78
2023/09/30 09:01:18;;;;;;;20.05;8.05;;;;;;;;;;5016625;28;20034;-78
2023/09/30 09:03:44;;;;;;;19.33;8.20;;;;;;;;;;4998226;28;20046;-77
2023/09/30 09:06:09;;;;;;;23.25;8.18;;;;;;;;;;4998926;28;20051;-79
2023/09/30 09:08:34;;;;;;;22.58;8.43;;;;;;;;;;5016235;28;20026;-79
2023/09/30 09:11:02;;;;;;;22.95;8.45;;;;;;;;;;4998682;28;20572;-79
2023/09/30 09:13:28;;;;;;;27.55;7.75;;;;;;;;;;4998408;28;20034;-79
2023/09/30 09:16:08;;;;;;;24.45;7.82;;;;;;;;;;4997951;28;20038;-79
2023/09/30 09:18:35;;;;;;;22.23;9.07;;;;;;;;;;5016214;28;20045;-79
2023/09/30 09:21:36;;;;;;;24.85;8.52;;;;;;;;;;4999594;28;20116;-78
2023/09/30 09:24:01;;;;;;;24.20;9.02;;;;;;;;;;4920384;29;20095;-78
2023/09/30 09:26:38;;;;;;;21.38;8.82;;;;;;;;;;4999421;28;20041;-78
2023/09/30 09:29:07;;;;;;;23.00;9.07;;;;;;;;;;4983421;28;20146;-76
2023/09/30 09:31:35;;;;;;;22.77;8.73;;;;;;;;;;4979357;28;20062;-79
2023/09/30 09:34:01;;;;;;;23.83;8.48;;;;;;;;;;4978269;28;20030;-79
2023/09/30 09:36:43;;;;;;;22.20;8.45;;;;;;;;;;4982844;28;20038;-79
2023/09/30 09:39:12;;;;;;;22.23;8.00;;;;;;;;;;4996638;28;20585;-78
2023/09/30 09:41:51;;;;;;;25.90;9.18;;;;;;;;;;4996185;28;20195;-78
2023/09/30 09:44:19;;;;;;;20.65;8.27;;;;;;;;;;5008633;28;20030;-78
2023/09/30 09:46:46;;;;;;;21.13;9.05;;;;;;;;;;4997055;28;20494;-78
2023/09/30 09:49:12;;;;;;;22.30;8.73;;;;;;;;;;5015542;28;20040;-78
2023/09/30 09:51:37;;;;;;;22.00;7.93;;;;;;;;;;4997540;28;20093;-79
2023/09/30 09:54:06;;;;;;;22.45;8.32;;;;;;;;;;5015839;28;20495;-78
2023/09/30 09:56:34;;;;;;;29.38;9.07;;;;;;;;;;4987979;28;20033;-77
2023/09/30 09:59:04;;;;;;;18.95;8.02;;;;;;;;;;4986831;28;20040;-77
2023/09/30 10:01:30;;;;;;;22.38;7.18;;;;;;;;;;4965218;28;20050;-78
2023/09/30 10:03:56;;;;;;;20.98;7.97;;;;;;;;;;4976447;28;20034;-78
2023/09/30 10:06:22;;;;;;;21.15;7.90;;;;;;;;;;4994813;28;20513;-78
2023/09/30 10:08:51;;;;;;;23.35;8.50;;;;;;;;;;5004635;28;20421;-78
2023/09/30 10:11:18;;;;;;;22.70;8.65;;;;;;;;;;4996135;28;20057;-78
2023/09/30 10:13:50;;;;;;;24.00;8.77;;;;;;;;;;5001532;28;20030;-78
2023/09/30 10:16:37;;;;;;;21.67;8.13;;;;;;;;;;4995645;28;20543;-77
2023/09/30 10:19:10;;;;;;;21.13;8.07;;;;;;;;;;4995434;28;20708;-78
2023/09/30 10:21:36;;;;;;;20.75;7.32;;;;;;;;;;4985089;28;20038;-79
2023/09/30 10:24:23;;;;;;;22.50;8.45;;;;;;;;;;4988660;28;20034;-79
2023/09/30 10:27:32;;;;;;;19.35;7.75;;;;;;;;;;4973279;28;20109;-78
2023/09/30 10:29:59;;;;;;;22.10;8.88;;;;;;;;;;4970004;28;20047;-79
2023/09/30 10:32:50;;;;;;;20.75;8.38;;;;;;;;;;4978959;28;20523;-77
2023/09/30 10:35:16;;;;;;;17.25;7.65;;;;;;;;;;4947808;28;20066;-77
2023/09/30 10:37:42;;;;;;;22.75;8.52;;;;;;;;;;4984295;28;20036;-77
2023/09/30 10:40:09;;;;;;;25.30;9.00;;;;;;;;;;4978036;28;20566;-77
2023/09/30 10:42:51;;;;;;;23.20;8.40;;;;;;;;;;4979254;28;21109;-77
2023/09/30 10:45:42;;;;;;;24.25;8.15;;;;;;;;;;4961548;28;20027;-77
2023/09/30 10:48:32;;;;;;;24.42;9.10;;;;;;;;;;5000115;28;20041;-77
2023/09/30 10:51:00;;;;;;;26.23;9.57;;;;;;;;;;4997206;28;20101;-77
2023/09/30 10:53:27;;;;;;;24.88;8.25;;;;;;;;;;5005564;28;20034;-77
2023/09/30 10:56:00;;;;;;;26.73;8.65;;;;;;;;;;4983440;28;20058;-78
2023/09/30 10:59:04;;;;;;;17.52;7.65;;;;;;;;;;5001391;28;20132;-77
2023/09/30 11:01:34;;;;;;;23.30;8.55;;;;;;;;;;4940637;29;20045;-78
2023/09/30 11:04:04;;;;;;;22.15;8.60;;;;;;;;;;4993728;28;20076;-78
2023/09/30 11:06:31;;;;;;;25.77;9.07;;;;;;;;;;5000583;28;20519;-77
2023/09/30 11:09:00;;;;;;;29.50;9.50;;;;;;;;;;5004271;28;20030;-77
2023/09/30 11:11:36;;;;;;;22.58;8.43;;;;;;;;;;5000383;28;20121;-77
2023/09/30 11:14:01;;;;;;;23.08;8.25;;;;;;;;;;4987988;28;20125;-78
2023/09/30 11:16:27;;;;;;;22.38;8.88;;;;;;;;;;4969109;28;20466;-77
2023/09/30 11:18:54;;;;;;;23.10;7.85;;;;;;;;;;4975742;28;20543;-78
2023/09/30 11:21:19;;;;;;;25.08;9.13;;;;;;;;;;4987601;28;20018;-79
2023/09/30 11:23:45;;;;;;;23.13;7.50;;;;;;;;;;4994874;28;20089;-78
2023/09/30 11:26:13;;;;;;;18.77;7.85;;;;;;;;;;4994315;28;20061;-78
2023/09/30 11:28:43;;;;;;;27.55;8.93;;;;;;;;;;4976549;28;20575;-80
2023/09/30 11:31:14;;;;;;;25.67;8.82;;;;;;;;;;4994891;28;20038;-77
2023/09/30 11:33:51;;;;;;;25.67;9.02;;;;;;;;;;4979978;28;20035;-78
2023/09/30 11:36:19;;;;;;;25.17;8.88;;;;;;;;;;5006372;28;20117;-77
2023/09/30 11:38:47;;;;;;;24.75;8.48;;;;;;;;;;5018593;28;20033;-79
2023/09/30 11:41:12;;;;;;;27.48;9.00;;;;;;;;;;5000819;28;20049;-77
2023/09/30 11:43:39;;;;;;;24.23;8.95;;;;;;;;;;5018679;28;20127;-78
2023/09/30 11:46:13;;;;;;;21.52;8.75;;;;;;;;;;5017733;28;20464;-77
2023/09/30 11:51:06;;;;;;;22.92;8.57;;;;;;;;;;5045621;28;20060;-74
2023/09/30 11:53:35;;;;;;;23.75;8.73;;;;;;;;;;5057461;28;20029;-75
2023/09/30 11:56:02;;;;;;;26.25;10.07;;;;;;;;;;5052019;28;20147;-75
2023/09/30 11:58:33;;;;;;;24.02;9.25;;;;;;;;;;5028786;28;20115;-75
2023/09/30 12:01:02;;;;;;;29.45;9.73;;;;;;;;;;5026692;28;20044;-75
2023/09/30 12:03:27;;;;;;;28.67;10.35;;;;;;;;;;5028402;28;20041;-75
2023/09/30 12:05:55;;;;;;;25.63;10.00;;;;;;;;;;5031011;28;20041;-75
2023/09/30 12:08:22;;;;;;;22.25;9.32;;;;;;;;;;5032301;28;20069;-74
2023/09/30 12:10:48;;;;;;;32.17;9.95;;;;;;;;;;5037803;28;20029;-74
2023/09/30 12:13:15;;;;;;;23.45;9.30;;;;;;;;;;5038780;28;20033;-74
2023/09/30 12:15:40;;;;;;;27.80;9.88;;;;;;;;;;5036387;28;20049;-74
2023/09/30 12:18:06;;;;;;;25.33;9.02;;;;;;;;;;5023320;28;20028;-74
2023/09/30 12:20:31;;;;;;;26.55;9.20;;;;;;;;;;5043132;28;20028;-74
2023/09/30 12:22:56;;;;;;;25.15;9.40;;;;;;;;;;5036657;28;20055;-74
2023/09/30 12:25:22;;;;;;;23.92;9.23;;;;;;;;;;5035270;28;20386;-74
2023/09/30 12:27:48;;;;;;;24.80;9.30;;;;;;;;;;5036347;28;20032;-74
2023/09/30 12:30:14;;;;;;;24.63;9.70;;;;;;;;;;5035569;28;20108;-74
2023/09/30 12:32:40;;;;;;;23.27;9.60;;;;;;;;;;5037197;28;20039;-74
2023/09/30 12:35:06;;;;;;;25.08;9.93;;;;;;;;;;5032681;28;20045;-74
2023/09/30 12:37:32;;;;;;;23.45;9.45;;;;;;;;;;5032826;28;20048;-74
2023/09/30 12:39:58;;;;;;;21.63;9.25;;;;;;;;;;5018975;28;20037;-74
2023/09/30 12:42:23;;;;;;;23.23;9.48;;;;;;;;;;5014227;28;20048;-74
2023/09/30 12:44:48;;;;;;;21.40;8.85;;;;;;;;;;5031552;28;20022;-74
2023/09/30 12:47:14;;;;;;;26.67;8.90;;;;;;;;;;5033125;28;20049;-74
2023/09/30 12:49:39;;;;;;;21.85;8.90;;;;;;;;;;5035482;28;20715;-74
2023/09/30 12:52:04;;;;;;;22.73;9.10;;;;;;;;;;5036908;28;20576;-74
2023/09/30 12:54:29;;;;;;;20.20;9.00;;;;;;;;;;5043585;28;20045;-74
2023/09/30 12:56:56;;;;;;;21.85;8.80;;;;;;;;;;5040059;28;20061;-74
2023/09/30 12:59:25;;;;;;;22.60;9.23;;;;;;;;;;5032371;28;20044;-76
2023/09/30 13:01:50;;;;;;;25.23;9.38;;;;;;;;;;5031335;28;20064;-73
2023/09/30 13:04:16;;;;;;;19.95;8.80;;;;;;;;;;5030627;28;20120;-75
2023/09/30 13:06:41;;;;;;;22.52;8.50;;;;;;;;;;5032038;28;20480;-75
2023/09/30 13:09:08;;;;;;;22.98;8.63;;;;;;;;;;5037899;28;20036;-75
2023/09/30 13:11:34;;;;;;;22.77;8.80;;;;;;;;;;5040022;28;20025;-75
2023/09/30 13:13:59;;;;;;;24.75;8.52;;;;;;;;;;5035623;28;20080;-75
2023/09/30 13:16:24;;;;;;;28.13;8.95;;;;;;;;;;5037702;28;20041;-73
2023/09/30 13:18:52;;;;;;;23.38;8.98;;;;;;;;;;5035667;28;20034;-74
2023/09/30 13:21:17;;;;;;;22.73;8.85;;;;;;;;;;5034132;28;20021;-74
2023/09/30 13:23:43;;;;;;;22.38;8.05;;;;;;;;;;5035884;28;20418;-74
2023/09/30 13:26:08;;;;;;;21.88;8.40;;;;;;;;;;5037705;28;20405;-73
2023/09/30 13:28:33;;;;;;;27.80;9.05;;;;;;;;;;5034094;28;20132;-74
2023/09/30 13:30:58;;;;;;;23.85;9.45;;;;;;;;;;5038330;28;20048;-73
2023/09/30 13:33:24;;;;;;;21.40;8.55;;;;;;;;;;5034247;28;20519;-74
2023/09/30 13:35:49;;;;;;;19.45;9.10;;;;;;;;;;5029692;28;20033;-74
2023/09/30 13:38:16;;;;;;;18.95;8.02;;;;;;;;;;5025416;28;20037;-74
2023/09/30 13:40:41;;;;;;;25.98;8.77;;;;;;;;;;5031813;28;20522;-74
2023/09/30 13:43:06;;;;;;;25.60;9.40;;;;;;;;;;5031105;28;20033;-74
2023/09/30 13:45:32;;;;;;;22.27;8.73;;;;;;;;;;5030426;28;20377;-74
2023/09/30 13:47:57;;;;;;;21.80;8.40;;;;;;;;;;5026644;28;20079;-74
2023/09/30 13:50:22;;;;;;;24.30;9.18;;;;;;;;;;5024927;28;20037;-74
2023/09/30 13:52:48;;;;;;;22.80;9.07;;;;;;;;;;5027026;28;20042;-74
2023/09/30 13:55:18;;;;;;;24.02;8.68;;;;;;;;;;5024580;28;20053;-74
2023/09/30 13:57:47;;;;;;;26.00;9.18;;;;;;;;;;5023290;28;20417;-74
2023/09/30 14:00:14;;;;;;;21.70;8.50;;;;;;;;;;5024303;28;20040;-74
2023/09/30 14:02:39;;;;;;;22.35;8.90;;;;;;;;;;5021649;28;20030;-73
2023/09/30 14:05:07;;;;;;;19.35;7.70;;;;;;;;;;5031949;28;20029;-74
2023/09/30 14:07:33;;;;;;;22.20;8.73;;;;;;;;;;5029758;28;20045;-73
2023/09/30 14:09:58;;;;;;;21.23;7.90;;;;;;;;;;5034380;28;20049;-74
2023/09/30 14:12:23;;;;;;;24.00;8.75;;;;;;;;;;5035612;28;20041;-76
2023/09/30 14:14:51;;;;;;;22.33;8.45;;;;;;;;;;5034161;28;20083;-76
2023/09/30 14:17:17;;;;;;;22.33;8.13;;;;;;;;;;5022029;28;20036;-76
2023/09/30 14:19:42;;;;;;;21.00;8.40;;;;;;;;;;5026496;28;20091;-76
2023/09/30 14:22:08;;;;;;;22.27;8.27;;;;;;;;;;5024223;28;20041;-76
2023/09/30 14:24:34;;;;;;;19.85;8.52;;;;;;;;;;5008255;28;20030;-76
2023/09/30 14:27:00;;;;;;;16.88;7.07;;;;;;;;;;5025900;28;20508;-74
2023/09/30 14:29:25;;;;;;;20.30;8.10;;;;;;;;;;5019067;28;21152;-74
2023/09/30 14:31:51;;;;;;;19.90;7.57;;;;;;;;;;5024419;28;20049;-74